N714DF EKVG-EGPB
Flight info
| Callsign | N714DF |
|---|---|
| Flight time | N/A |
| Altitude | 5000 |
| Route | ODEVA DCT NALAN/N0155F050 DCT KOKAL DCT WAFIL |
| Aircraft | PA24/L-SDGRY/S |
Departure
| Time | 2026-05-09 03:11 |
|---|---|
| Airport | Vágar Airport (EKVG) |
Arrival
| Time | N/A |
|---|---|
| Airport | Sumburgh Airport (EGPB) |
| Time | Latitude | Longitude | Altitude | Speed | Heading |
|---|---|---|---|---|---|
| 2026-05-09 02:57 | 62.06562 | -7.27997 | 295 ft | 0 kts | 43° |
| 2026-05-09 03:05 | 62.06565 | -7.27991 | 302 ft | 6 kts | 38° |
| 2026-05-09 03:05 | 62.06569 | -7.27986 | 304 ft | 0 kts | 17° |
| 2026-05-09 03:06 | 62.06569 | -7.27985 | 304 ft | 0 kts | 17° |
| 2026-05-09 03:06 | 62.06575 | -7.27982 | 286 ft | 1 kts | 17° |
| 2026-05-09 03:07 | 62.06575 | -7.27981 | 286 ft | 1 kts | 17° |
| 2026-05-09 03:07 | 62.06585 | -7.27978 | 286 ft | 3 kts | 349° |
| 2026-05-09 03:07 | 62.06590 | -7.27985 | 279 ft | 2 kts | 301° |
| 2026-05-09 03:08 | 62.06574 | -7.28078 | 287 ft | 6 kts | 287° |
| 2026-05-09 03:08 | 62.06574 | -7.28071 | 287 ft | 10 kts | 189° |
| 2026-05-09 03:08 | 62.06457 | -7.28121 | 287 ft | 16 kts | 143° |
| 2026-05-09 03:08 | 62.06367 | -7.27776 | 286 ft | 38 kts | 117° |
| 2026-05-09 03:09 | 62.06244 | -7.27251 | 277 ft | 35 kts | 119° |
| 2026-05-09 03:09 | 62.06138 | -7.26842 | 276 ft | 28 kts | 118° |
| 2026-05-09 03:09 | 62.06083 | -7.26632 | 274 ft | 3 kts | 231° |
| 2026-05-09 03:09 | 62.06103 | -7.26720 | 274 ft | 23 kts | 298° |
| 2026-05-09 03:10 | 62.06237 | -7.27261 | 299 ft | 52 kts | 300° |
| 2026-05-09 03:10 | 62.06435 | -7.27929 | 400 ft | 55 kts | 295° |
| 2026-05-09 03:10 | 62.06598 | -7.28736 | 527 ft | 56 kts | 295° |
| 2026-05-09 03:10 | 62.06774 | -7.29535 | 654 ft | 62 kts | 298° |
| 2026-05-09 03:11 | 62.06974 | -7.30315 | 864 ft | 59 kts | 301° |
| 2026-05-09 03:11 | 62.07176 | -7.31074 | 1035 ft | 54 kts | 301° |
| 2026-05-09 03:11 | 62.07346 | -7.31754 | 1171 ft | 54 kts | 302° |
| 2026-05-09 03:11 | 62.07509 | -7.32447 | 1327 ft | 50 kts | 301° |
| 2026-05-09 03:12 | 62.07661 | -7.33175 | 1447 ft | 55 kts | 298° |
| 2026-05-09 03:12 | 62.07787 | -7.33918 | 1600 ft | 55 kts | 295° |
| 2026-05-09 03:12 | 62.07892 | -7.34738 | 1739 ft | 58 kts | 291° |
| 2026-05-09 03:12 | 62.07953 | -7.35576 | 1867 ft | 58 kts | 288° |
| 2026-05-09 03:13 | 62.08002 | -7.37311 | 2141 ft | 62 kts | 286° |
| 2026-05-09 03:13 | 62.08037 | -7.38216 | 2298 ft | 59 kts | 288° |
| 2026-05-09 03:13 | 62.08089 | -7.39108 | 2401 ft | 65 kts | 274° |
| 2026-05-09 03:14 | 62.07805 | -7.39989 | 2512 ft | 84 kts | 229° |
| 2026-05-09 03:14 | 62.07163 | -7.40232 | 2638 ft | 107 kts | 188° |
| 2026-05-09 03:14 | 62.06429 | -7.39618 | 2762 ft | 120 kts | 150° |
| 2026-05-09 03:14 | 62.05832 | -7.38331 | 2934 ft | 124 kts | 121° |
| 2026-05-09 03:15 | 62.05543 | -7.36614 | 3116 ft | 121 kts | 97° |
| 2026-05-09 03:15 | 62.05379 | -7.34896 | 3243 ft | 120 kts | 85° |
| 2026-05-09 03:15 | 62.05437 | -7.33160 | 3470 ft | 112 kts | 65° |
| 2026-05-09 03:15 | 62.05589 | -7.31567 | 3532 ft | 111 kts | 70° |
| 2026-05-09 03:16 | 62.05545 | -7.29883 | 3654 ft | 118 kts | 86° |
| 2026-05-09 03:16 | 62.05308 | -7.28168 | 3784 ft | 124 kts | 104° |
| 2026-05-09 03:16 | 62.04865 | -7.26567 | 3945 ft | 127 kts | 121° |
| 2026-05-09 03:16 | 62.04289 | -7.25097 | 4093 ft | 130 kts | 122° |
| 2026-05-09 03:17 | 62.03818 | -7.23461 | 4272 ft | 129 kts | 112° |
| 2026-05-09 03:17 | 62.03452 | -7.21696 | 4411 ft | 131 kts | 105° |
| 2026-05-09 03:17 | 62.03122 | -7.19893 | 4574 ft | 134 kts | 106° |
| 2026-05-09 03:17 | 62.02761 | -7.18077 | 4633 ft | 130 kts | 109° |
| 2026-05-09 03:18 | 62.02379 | -7.16319 | 4726 ft | 134 kts | 109° |
| 2026-05-09 03:18 | 62.01999 | -7.14560 | 4853 ft | 128 kts | 111° |
| 2026-05-09 03:18 | 62.01632 | -7.12857 | 4971 ft | 126 kts | 110° |
| 2026-05-09 03:18 | 62.01256 | -7.11078 | 5008 ft | 140 kts | 110° |
| 2026-05-09 03:19 | 62.00848 | -7.09161 | 5018 ft | 144 kts | 111° |
| 2026-05-09 03:19 | 62.00419 | -7.07157 | 5017 ft | 155 kts | 111° |
| 2026-05-09 03:19 | 61.99974 | -7.05049 | 5023 ft | 156 kts | 110° |
| 2026-05-09 03:19 | 61.99532 | -7.02921 | 5030 ft | 156 kts | 110° |
| 2026-05-09 03:20 | 61.99073 | -7.00779 | 5034 ft | 160 kts | 112° |
| 2026-05-09 03:20 | 61.98618 | -6.98636 | 5042 ft | 159 kts | 111° |
| 2026-05-09 03:20 | 61.98165 | -6.96510 | 5049 ft | 158 kts | 111° |
| 2026-05-09 03:20 | 61.97697 | -6.94328 | 5063 ft | 162 kts | 111° |
| 2026-05-09 03:21 | 61.97230 | -6.92187 | 5072 ft | 162 kts | 112° |
| 2026-05-09 03:21 | 61.96757 | -6.89956 | 5082 ft | 168 kts | 110° |
| 2026-05-09 03:21 | 61.96288 | -6.87709 | 5092 ft | 164 kts | 111° |
| 2026-05-09 03:21 | 61.95820 | -6.85520 | 5104 ft | 165 kts | 111° |
| 2026-05-09 03:22 | 61.95347 | -6.83329 | 5112 ft | 160 kts | 112° |
| 2026-05-09 03:22 | 61.94882 | -6.81178 | 5125 ft | 163 kts | 112° |
| 2026-05-09 03:22 | 61.94411 | -6.78988 | 5139 ft | 165 kts | 112° |
| 2026-05-09 03:22 | 61.93936 | -6.76786 | 5152 ft | 162 kts | 112° |
| 2026-05-09 03:23 | 61.93457 | -6.74565 | 5175 ft | 166 kts | 112° |
| 2026-05-09 03:23 | 61.92968 | -6.72321 | 5190 ft | 169 kts | 112° |
| 2026-05-09 03:23 | 61.92486 | -6.70067 | 5092 ft | 172 kts | 112° |
| 2026-05-09 03:23 | 61.91989 | -6.67733 | 5046 ft | 174 kts | 111° |
| 2026-05-09 03:24 | 61.91490 | -6.65458 | 5028 ft | 168 kts | 112° |
| 2026-05-09 03:24 | 61.90996 | -6.63198 | 5019 ft | 171 kts | 113° |
| 2026-05-09 03:24 | 61.90536 | -6.60858 | 5015 ft | 170 kts | 104° |
| 2026-05-09 03:24 | 61.90115 | -6.58510 | 5015 ft | 173 kts | 114° |
| 2026-05-09 03:25 | 61.89449 | -6.56418 | 5012 ft | 171 kts | 131° |
| 2026-05-09 03:25 | 61.88598 | -6.54839 | 5030 ft | 171 kts | 147° |
| 2026-05-09 03:25 | 61.87564 | -6.53684 | 5033 ft | 163 kts | 164° |
| 2026-05-09 03:25 | 61.86477 | -6.53187 | 5036 ft | 160 kts | 180° |
| 2026-05-09 03:26 | 61.85384 | -6.53295 | 5040 ft | 154 kts | 197° |
| 2026-05-09 03:26 | 61.84391 | -6.53904 | 5037 ft | 145 kts | 210° |
| 2026-05-09 03:26 | 61.83483 | -6.54707 | 5032 ft | 139 kts | 213° |
| 2026-05-09 03:26 | 61.82564 | -6.55384 | 5032 ft | 142 kts | 209° |
| 2026-05-09 03:27 | 61.81581 | -6.55714 | 5030 ft | 145 kts | 199° |
| 2026-05-09 03:27 | 61.80560 | -6.55635 | 5033 ft | 149 kts | 185° |
| 2026-05-09 03:27 | 61.79562 | -6.55064 | 5034 ft | 151 kts | 163° |
| 2026-05-09 03:27 | 61.78670 | -6.53720 | 5037 ft | 163 kts | 143° |
| 2026-05-09 03:28 | 61.77827 | -6.52056 | 5032 ft | 167 kts | 141° |
| 2026-05-09 03:28 | 61.76953 | -6.50465 | 5058 ft | 164 kts | 145° |
| 2026-05-09 03:28 | 61.76004 | -6.49095 | 5051 ft | 164 kts | 155° |
| 2026-05-09 03:28 | 61.74976 | -6.48052 | 5057 ft | 165 kts | 166° |
| 2026-05-09 03:29 | 61.73882 | -6.47349 | 5059 ft | 163 kts | 177° |
| 2026-05-09 03:29 | 61.72795 | -6.46991 | 5060 ft | 157 kts | 185° |
| 2026-05-09 03:29 | 61.71708 | -6.46825 | 5059 ft | 156 kts | 189° |
| 2026-05-09 03:29 | 61.70640 | -6.46747 | 5049 ft | 152 kts | 188° |
| 2026-05-09 03:30 | 61.69583 | -6.46594 | 5045 ft | 153 kts | 185° |
| 2026-05-09 03:30 | 61.68524 | -6.46228 | 5048 ft | 155 kts | 179° |
| 2026-05-09 03:30 | 61.67469 | -6.45659 | 5050 ft | 157 kts | 174° |
| 2026-05-09 03:30 | 61.66427 | -6.44900 | 5052 ft | 160 kts | 168° |
| 2026-05-09 03:31 | 61.65400 | -6.43988 | 5053 ft | 161 kts | 165° |
| 2026-05-09 03:31 | 61.64382 | -6.42993 | 5054 ft | 161 kts | 163° |
| 2026-05-09 03:31 | 61.63371 | -6.42006 | 5055 ft | 159 kts | 163° |
| 2026-05-09 03:31 | 61.62354 | -6.41077 | 5056 ft | 160 kts | 165° |
| 2026-05-09 03:32 | 61.61319 | -6.40206 | 5061 ft | 162 kts | 167° |
| 2026-05-09 03:32 | 61.60261 | -6.39392 | 5058 ft | 162 kts | 170° |
| 2026-05-09 03:32 | 61.59191 | -6.38665 | 5058 ft | 161 kts | 173° |
| 2026-05-09 03:32 | 61.58116 | -6.38026 | 5057 ft | 160 kts | 175° |
| 2026-05-09 03:33 | 61.57044 | -6.37466 | 5051 ft | 157 kts | 176° |
| 2026-05-09 03:33 | 61.55985 | -6.36952 | 5052 ft | 156 kts | 176° |
| 2026-05-09 03:33 | 61.54933 | -6.36418 | 5052 ft | 155 kts | 175° |
| 2026-05-09 03:33 | 61.53885 | -6.35826 | 5066 ft | 156 kts | 173° |
| 2026-05-09 03:34 | 61.52846 | -6.35166 | 5089 ft | 156 kts | 171° |
| 2026-05-09 03:34 | 61.51813 | -6.34446 | 5075 ft | 157 kts | 169° |
| 2026-05-09 03:34 | 61.50785 | -6.33679 | 5069 ft | 157 kts | 168° |
| 2026-05-09 03:34 | 61.49760 | -6.32889 | 5075 ft | 157 kts | 168° |
| 2026-05-09 03:35 | 61.48732 | -6.32092 | 5065 ft | 158 kts | 168° |
| 2026-05-09 03:35 | 61.47691 | -6.31284 | 5070 ft | 160 kts | 169° |
| 2026-05-09 03:35 | 61.46654 | -6.30499 | 5069 ft | 161 kts | 170° |
| 2026-05-09 03:35 | 61.45593 | -6.29746 | 5072 ft | 161 kts | 172° |
| 2026-05-09 03:36 | 61.44524 | -6.29042 | 5070 ft | 161 kts | 173° |
| 2026-05-09 03:36 | 61.43457 | -6.28384 | 5069 ft | 160 kts | 174° |
| 2026-05-09 03:36 | 61.42390 | -6.27757 | 5078 ft | 159 kts | 175° |
| 2026-05-09 03:36 | 61.41327 | -6.27144 | 5076 ft | 158 kts | 175° |
| 2026-05-09 03:37 | 61.40274 | -6.26543 | 5079 ft | 156 kts | 174° |
| 2026-05-09 03:37 | 61.39228 | -6.25920 | 5080 ft | 156 kts | 173° |
| 2026-05-09 03:37 | 61.38189 | -6.25267 | 5079 ft | 156 kts | 172° |
| 2026-05-09 03:37 | 61.37153 | -6.24571 | 5079 ft | 157 kts | 171° |
| 2026-05-09 03:38 | 61.36116 | -6.23836 | 5074 ft | 157 kts | 170° |
| 2026-05-09 03:38 | 61.35077 | -6.23078 | 5078 ft | 159 kts | 170° |
| 2026-05-09 03:38 | 61.34032 | -6.22302 | 5080 ft | 160 kts | 170° |
| 2026-05-09 03:38 | 61.33337 | -6.21782 | 5077 ft | 161 kts | 170° |
| 2026-05-09 03:39 | 61.32281 | -6.21008 | 5077 ft | 161 kts | 171° |
| 2026-05-09 03:39 | 61.31221 | -6.20265 | 5083 ft | 161 kts | 172° |
| 2026-05-09 03:39 | 61.30155 | -6.19560 | 5086 ft | 160 kts | 173° |
| 2026-05-09 03:39 | 61.29091 | -6.18889 | 5083 ft | 159 kts | 174° |
| 2026-05-09 03:40 | 61.28027 | -6.18243 | 5086 ft | 159 kts | 174° |
| 2026-05-09 03:40 | 61.26963 | -6.17606 | 5087 ft | 159 kts | 175° |
| 2026-05-09 03:40 | 61.25899 | -6.16962 | 5091 ft | 159 kts | 174° |
| 2026-05-09 03:40 | 61.24841 | -6.16306 | 5090 ft | 159 kts | 174° |
| 2026-05-09 03:41 | 61.23787 | -6.15630 | 5088 ft | 159 kts | 173° |
| 2026-05-09 03:41 | 61.22730 | -6.14950 | 5086 ft | 159 kts | 173° |
| 2026-05-09 03:41 | 61.21675 | -6.14254 | 5085 ft | 159 kts | 172° |
| 2026-05-09 03:41 | 61.20621 | -6.13528 | 5085 ft | 160 kts | 171° |
| 2026-05-09 03:42 | 61.19568 | -6.12787 | 5075 ft | 159 kts | 171° |
| 2026-05-09 03:42 | 61.18532 | -6.12054 | 5081 ft | 157 kts | 172° |
| 2026-05-09 03:42 | 61.17498 | -6.11337 | 5084 ft | 157 kts | 172° |
| 2026-05-09 03:42 | 61.16463 | -6.10640 | 5084 ft | 156 kts | 173° |
| 2026-05-09 03:43 | 61.15425 | -6.09959 | 5084 ft | 157 kts | 173° |
| 2026-05-09 03:43 | 61.14396 | -6.09302 | 5084 ft | 157 kts | 174° |
| 2026-05-09 03:43 | 61.13355 | -6.08646 | 5083 ft | 156 kts | 174° |
| 2026-05-09 03:43 | 61.12315 | -6.07998 | 5083 ft | 156 kts | 174° |
| 2026-05-09 03:44 | 61.11275 | -6.07348 | 5084 ft | 156 kts | 174° |
| 2026-05-09 03:44 | 61.10231 | -6.06693 | 5085 ft | 157 kts | 174° |
| 2026-05-09 03:44 | 61.09189 | -6.06028 | 5084 ft | 157 kts | 173° |
| 2026-05-09 03:44 | 61.08150 | -6.05351 | 5092 ft | 157 kts | 173° |
| 2026-05-09 03:45 | 61.07111 | -6.04665 | 5092 ft | 157 kts | 173° |
| 2026-05-09 03:45 | 61.06073 | -6.03978 | 5091 ft | 156 kts | 173° |
| 2026-05-09 03:45 | 61.05038 | -6.03291 | 5091 ft | 156 kts | 172° |
| 2026-05-09 03:45 | 61.04014 | -6.02601 | 5092 ft | 154 kts | 171° |
| 2026-05-09 03:46 | 61.02991 | -6.01950 | 5091 ft | 153 kts | 172° |
| 2026-05-09 03:46 | 61.01971 | -6.01304 | 5092 ft | 153 kts | 172° |
| 2026-05-09 03:46 | 61.00949 | -6.00648 | 5092 ft | 154 kts | 172° |
| 2026-05-09 03:46 | 60.99924 | -5.99939 | 5091 ft | 157 kts | 171° |
| 2026-05-09 03:47 | 60.98905 | -5.99078 | 5090 ft | 159 kts | 165° |
| 2026-05-09 03:47 | 60.97924 | -5.97994 | 5090 ft | 161 kts | 158° |
| 2026-05-09 03:47 | 60.97022 | -5.96712 | 5090 ft | 156 kts | 148° |
| 2026-05-09 03:47 | 60.96191 | -5.95246 | 5099 ft | 159 kts | 141° |
| 2026-05-09 03:48 | 60.95408 | -5.93548 | 5099 ft | 167 kts | 136° |
| 2026-05-09 03:48 | 60.94663 | -5.91801 | 5098 ft | 161 kts | 134° |
| 2026-05-09 03:48 | 60.93925 | -5.90020 | 5098 ft | 162 kts | 134° |
| 2026-05-09 03:48 | 60.93170 | -5.88330 | 5099 ft | 160 kts | 137° |
| 2026-05-09 03:49 | 60.92364 | -5.86710 | 5099 ft | 166 kts | 141° |
| 2026-05-09 03:49 | 60.91497 | -5.85135 | 5075 ft | 166 kts | 147° |
| 2026-05-09 03:49 | 60.90597 | -5.83745 | 5092 ft | 160 kts | 150° |
| 2026-05-09 03:49 | 60.89693 | -5.82505 | 5106 ft | 159 kts | 153° |
| 2026-05-09 03:50 | 60.88753 | -5.81258 | 5093 ft | 159 kts | 154° |
| 2026-05-09 03:50 | 60.87818 | -5.80025 | 5099 ft | 161 kts | 153° |
| 2026-05-09 03:50 | 60.86887 | -5.78711 | 5101 ft | 163 kts | 152° |
| 2026-05-09 03:50 | 60.85965 | -5.77338 | 5112 ft | 164 kts | 150° |
| 2026-05-09 03:51 | 60.85063 | -5.75916 | 5094 ft | 164 kts | 148° |
| 2026-05-09 03:51 | 60.84187 | -5.74458 | 5095 ft | 160 kts | 147° |
| 2026-05-09 03:51 | 60.83328 | -5.72991 | 5106 ft | 160 kts | 145° |
| 2026-05-09 03:51 | 60.82488 | -5.71516 | 5101 ft | 159 kts | 144° |
| 2026-05-09 03:52 | 60.81640 | -5.69997 | 5096 ft | 163 kts | 144° |
| 2026-05-09 03:52 | 60.80788 | -5.68459 | 5096 ft | 162 kts | 143° |
| 2026-05-09 03:52 | 60.79937 | -5.67001 | 5097 ft | 159 kts | 146° |
| 2026-05-09 03:52 | 60.79071 | -5.65586 | 5096 ft | 160 kts | 147° |
| 2026-05-09 03:53 | 60.78196 | -5.64195 | 5096 ft | 160 kts | 148° |
| 2026-05-09 03:53 | 60.77304 | -5.62791 | 5104 ft | 160 kts | 148° |
| 2026-05-09 03:53 | 60.76416 | -5.61421 | 5100 ft | 162 kts | 148° |
| 2026-05-09 03:53 | 60.75519 | -5.59990 | 5094 ft | 164 kts | 148° |
| 2026-05-09 03:54 | 60.74624 | -5.58566 | 5102 ft | 160 kts | 148° |
| 2026-05-09 03:54 | 60.73738 | -5.57198 | 5109 ft | 158 kts | 148° |
| 2026-05-09 03:54 | 60.72854 | -5.55781 | 5109 ft | 164 kts | 147° |
| 2026-05-09 03:54 | 60.71967 | -5.54346 | 5106 ft | 161 kts | 148° |
| 2026-05-09 03:55 | 60.71078 | -5.52898 | 5119 ft | 164 kts | 147° |
| 2026-05-09 03:55 | 60.70188 | -5.51428 | 5106 ft | 165 kts | 147° |
| 2026-05-09 03:55 | 60.69293 | -5.49953 | 5106 ft | 166 kts | 148° |
| 2026-05-09 03:55 | 60.68416 | -5.48549 | 5110 ft | 162 kts | 148° |
| 2026-05-09 03:56 | 60.67532 | -5.47153 | 5106 ft | 160 kts | 148° |
| 2026-05-09 03:56 | 60.66639 | -5.45732 | 5106 ft | 164 kts | 148° |
| 2026-05-09 03:56 | 60.65739 | -5.44283 | 5105 ft | 163 kts | 147° |
| 2026-05-09 03:56 | 60.64845 | -5.42833 | 5098 ft | 165 kts | 148° |
| 2026-05-09 03:57 | 60.63951 | -5.41433 | 5088 ft | 159 kts | 148° |
| 2026-05-09 03:57 | 60.63077 | -5.40078 | 5106 ft | 157 kts | 147° |
| 2026-05-09 03:57 | 60.62210 | -5.38716 | 5112 ft | 157 kts | 147° |
| 2026-05-09 03:57 | 60.61345 | -5.37320 | 5102 ft | 161 kts | 146° |
| 2026-05-09 03:58 | 60.60476 | -5.35895 | 5111 ft | 162 kts | 146° |
| 2026-05-09 03:58 | 60.59597 | -5.34447 | 5104 ft | 162 kts | 147° |
| 2026-05-09 03:58 | 60.58719 | -5.33036 | 5107 ft | 159 kts | 147° |
| 2026-05-09 03:58 | 60.57849 | -5.31636 | 5104 ft | 159 kts | 146° |
| 2026-05-09 03:59 | 60.56969 | -5.30196 | 5107 ft | 164 kts | 147° |
| 2026-05-09 03:59 | 60.56077 | -5.28755 | 5104 ft | 164 kts | 148° |
| 2026-05-09 03:59 | 60.55179 | -5.27340 | 5107 ft | 162 kts | 148° |
| 2026-05-09 03:59 | 60.54304 | -5.25998 | 5112 ft | 161 kts | 148° |
| 2026-05-09 04:00 | 60.53413 | -5.24610 | 5101 ft | 162 kts | 148° |
| 2026-05-09 04:00 | 60.52534 | -5.23246 | 5109 ft | 157 kts | 148° |
| 2026-05-09 04:00 | 60.51663 | -5.21901 | 5111 ft | 158 kts | 148° |
| 2026-05-09 04:00 | 60.50788 | -5.20516 | 5120 ft | 160 kts | 147° |
| 2026-05-09 04:01 | 60.49913 | -5.19108 | 5112 ft | 158 kts | 147° |
| 2026-05-09 04:01 | 60.49048 | -5.17729 | 5122 ft | 159 kts | 147° |
| 2026-05-09 04:01 | 60.48182 | -5.16348 | 5113 ft | 158 kts | 147° |
| 2026-05-09 04:01 | 60.47317 | -5.14974 | 5115 ft | 157 kts | 147° |
| 2026-05-09 04:02 | 60.46456 | -5.13613 | 5122 ft | 157 kts | 147° |
| 2026-05-09 04:02 | 60.45588 | -5.12221 | 5107 ft | 162 kts | 147° |
| 2026-05-09 04:02 | 60.44712 | -5.10795 | 5104 ft | 163 kts | 147° |
| 2026-05-09 04:02 | 60.43835 | -5.09371 | 5104 ft | 160 kts | 146° |
| 2026-05-09 04:03 | 60.42965 | -5.07984 | 5111 ft | 160 kts | 147° |
| 2026-05-09 04:03 | 60.42079 | -5.06616 | 5112 ft | 159 kts | 149° |
| 2026-05-09 04:03 | 60.41180 | -5.05241 | 5115 ft | 163 kts | 149° |
| 2026-05-09 04:03 | 60.40285 | -5.03865 | 5111 ft | 164 kts | 149° |
| 2026-05-09 04:04 | 60.39367 | -5.02448 | 5111 ft | 164 kts | 149° |
| 2026-05-09 04:04 | 60.38476 | -5.01074 | 5112 ft | 162 kts | 149° |
| 2026-05-09 04:04 | 60.37583 | -4.99709 | 5119 ft | 162 kts | 149° |
| 2026-05-09 04:04 | 60.36696 | -4.98352 | 5098 ft | 159 kts | 148° |
| 2026-05-09 04:05 | 60.35821 | -4.97027 | 5107 ft | 158 kts | 148° |
| 2026-05-09 04:05 | 60.34952 | -4.95654 | 5110 ft | 158 kts | 146° |
| 2026-05-09 04:05 | 60.34094 | -4.94257 | 5112 ft | 156 kts | 146° |
| 2026-05-09 04:05 | 60.33249 | -4.92897 | 5113 ft | 155 kts | 146° |
| 2026-05-09 04:06 | 60.32401 | -4.91525 | 5110 ft | 158 kts | 146° |
| 2026-05-09 04:06 | 60.31543 | -4.90139 | 5114 ft | 157 kts | 146° |
| 2026-05-09 04:06 | 60.30683 | -4.88783 | 5123 ft | 156 kts | 147° |
| 2026-05-09 04:06 | 60.29816 | -4.87432 | 5123 ft | 160 kts | 147° |
| 2026-05-09 04:07 | 60.28937 | -4.86050 | 5120 ft | 161 kts | 147° |
| 2026-05-09 04:07 | 60.28059 | -4.84706 | 5120 ft | 158 kts | 148° |
| 2026-05-09 04:07 | 60.27184 | -4.83391 | 5119 ft | 159 kts | 148° |
| 2026-05-09 04:07 | 60.26300 | -4.82025 | 5121 ft | 160 kts | 148° |
| 2026-05-09 04:08 | 60.25421 | -4.80679 | 5113 ft | 159 kts | 148° |
| 2026-05-09 04:08 | 60.24538 | -4.79308 | 5111 ft | 161 kts | 148° |
| 2026-05-09 04:08 | 60.23654 | -4.77922 | 5110 ft | 161 kts | 148° |
| 2026-05-09 04:08 | 60.22768 | -4.76536 | 5110 ft | 160 kts | 148° |
| 2026-05-09 04:09 | 60.21894 | -4.75196 | 5110 ft | 158 kts | 148° |
| 2026-05-09 04:09 | 60.21023 | -4.73867 | 5109 ft | 158 kts | 148° |
| 2026-05-09 04:09 | 60.20146 | -4.72523 | 5119 ft | 160 kts | 148° |
| 2026-05-09 04:09 | 60.19268 | -4.71174 | 5118 ft | 158 kts | 148° |
| 2026-05-09 04:10 | 60.18399 | -4.69824 | 5123 ft | 157 kts | 147° |
| 2026-05-09 04:10 | 60.17550 | -4.68521 | 5119 ft | 155 kts | 147° |
| 2026-05-09 04:10 | 60.16692 | -4.67199 | 5120 ft | 156 kts | 147° |
| 2026-05-09 04:10 | 60.15834 | -4.65863 | 5121 ft | 157 kts | 147° |
| 2026-05-09 04:11 | 60.14971 | -4.64489 | 5121 ft | 158 kts | 147° |
| 2026-05-09 04:11 | 60.14103 | -4.63122 | 5118 ft | 160 kts | 147° |
| 2026-05-09 04:11 | 60.13229 | -4.61744 | 5120 ft | 159 kts | 147° |
| 2026-05-09 04:11 | 60.12359 | -4.60403 | 5117 ft | 157 kts | 147° |
| 2026-05-09 04:12 | 60.11486 | -4.59084 | 5120 ft | 158 kts | 148° |
| 2026-05-09 04:12 | 60.10602 | -4.57739 | 5117 ft | 160 kts | 148° |
| 2026-05-09 04:12 | 60.09714 | -4.56406 | 5117 ft | 159 kts | 149° |
| 2026-05-09 04:12 | 60.08832 | -4.55094 | 5118 ft | 156 kts | 149° |
| 2026-05-09 04:13 | 60.07965 | -4.53820 | 5124 ft | 155 kts | 148° |
| 2026-05-09 04:13 | 60.07099 | -4.52519 | 5127 ft | 155 kts | 148° |
| 2026-05-09 04:13 | 60.06242 | -4.51231 | 5122 ft | 154 kts | 147° |
| 2026-05-09 04:13 | 60.05394 | -4.49925 | 5122 ft | 156 kts | 146° |
| 2026-05-09 04:14 | 60.04544 | -4.48569 | 5120 ft | 157 kts | 146° |
| 2026-05-09 04:14 | 60.03695 | -4.47226 | 5118 ft | 154 kts | 146° |
| 2026-05-09 04:14 | 60.02846 | -4.45897 | 5120 ft | 155 kts | 147° |
| 2026-05-09 04:14 | 60.01994 | -4.44591 | 5120 ft | 154 kts | 147° |
| 2026-05-09 04:15 | 60.01139 | -4.43293 | 5120 ft | 154 kts | 147° |
| 2026-05-09 04:15 | 60.00285 | -4.42007 | 5120 ft | 154 kts | 147° |
| 2026-05-09 04:15 | 59.99425 | -4.40689 | 5120 ft | 156 kts | 147° |
| 2026-05-09 04:15 | 59.98569 | -4.39381 | 5120 ft | 157 kts | 148° |
| 2026-05-09 04:16 | 59.97703 | -4.38076 | 5128 ft | 155 kts | 148° |
| 2026-05-09 04:16 | 59.96841 | -4.36790 | 5128 ft | 156 kts | 147° |
| 2026-05-09 04:16 | 59.95983 | -4.35489 | 5127 ft | 155 kts | 148° |
| 2026-05-09 04:16 | 59.95118 | -4.34168 | 5127 ft | 157 kts | 147° |
| 2026-05-09 04:17 | 59.94251 | -4.32834 | 5129 ft | 158 kts | 148° |
| 2026-05-09 04:17 | 59.93382 | -4.31502 | 5130 ft | 157 kts | 148° |
| 2026-05-09 04:17 | 59.92515 | -4.30193 | 5130 ft | 155 kts | 148° |
| 2026-05-09 04:17 | 59.91646 | -4.28894 | 5130 ft | 155 kts | 148° |
| 2026-05-09 04:18 | 59.90783 | -4.27621 | 5128 ft | 155 kts | 148° |
| 2026-05-09 04:18 | 59.89916 | -4.26333 | 5128 ft | 157 kts | 148° |
| 2026-05-09 04:18 | 59.89048 | -4.25017 | 5128 ft | 157 kts | 147° |
| 2026-05-09 04:18 | 59.88185 | -4.23715 | 5128 ft | 154 kts | 148° |
| 2026-05-09 04:19 | 59.87325 | -4.22436 | 5133 ft | 154 kts | 148° |
| 2026-05-09 04:19 | 59.86465 | -4.21146 | 5130 ft | 156 kts | 147° |
| 2026-05-09 04:19 | 59.85599 | -4.19822 | 5130 ft | 156 kts | 147° |
| 2026-05-09 04:19 | 59.84739 | -4.18522 | 5130 ft | 155 kts | 147° |
| 2026-05-09 04:20 | 59.83877 | -4.17206 | 5130 ft | 158 kts | 147° |
| 2026-05-09 04:20 | 59.83010 | -4.15870 | 5130 ft | 157 kts | 147° |
| 2026-05-09 04:20 | 59.82154 | -4.14590 | 5130 ft | 155 kts | 148° |
| 2026-05-09 04:20 | 59.81296 | -4.13324 | 5125 ft | 154 kts | 148° |
| 2026-05-09 04:21 | 59.80442 | -4.12043 | 5128 ft | 153 kts | 148° |
| 2026-05-09 04:21 | 59.79588 | -4.10757 | 5130 ft | 154 kts | 148° |
| 2026-05-09 04:21 | 59.77865 | -4.08165 | 5130 ft | 156 kts | 148° |
| 2026-05-09 04:22 | 59.77000 | -4.06879 | 5131 ft | 154 kts | 148° |
| 2026-05-09 04:22 | 59.76142 | -4.05614 | 5136 ft | 154 kts | 148° |
| 2026-05-09 04:22 | 59.75284 | -4.04341 | 5136 ft | 155 kts | 148° |
| 2026-05-09 04:22 | 59.74423 | -4.03041 | 5136 ft | 156 kts | 148° |
| 2026-05-09 04:23 | 59.73561 | -4.01754 | 5130 ft | 156 kts | 148° |
| 2026-05-09 04:23 | 59.72702 | -4.00473 | 5133 ft | 153 kts | 148° |
| 2026-05-09 04:23 | 59.71846 | -3.99220 | 5133 ft | 153 kts | 148° |
| 2026-05-09 04:23 | 59.70993 | -3.97969 | 5133 ft | 153 kts | 148° |
| 2026-05-09 04:24 | 59.70139 | -3.96707 | 5133 ft | 154 kts | 148° |
| 2026-05-09 04:24 | 59.69283 | -3.95430 | 5133 ft | 154 kts | 148° |
| 2026-05-09 04:24 | 59.68423 | -3.94144 | 5133 ft | 156 kts | 148° |
| 2026-05-09 04:24 | 59.67566 | -3.92844 | 5133 ft | 155 kts | 147° |
| 2026-05-09 04:25 | 59.66711 | -3.91567 | 5136 ft | 153 kts | 148° |
| 2026-05-09 04:25 | 59.65855 | -3.90303 | 5129 ft | 155 kts | 148° |
| 2026-05-09 04:25 | 59.64994 | -3.89007 | 5135 ft | 156 kts | 148° |
| 2026-05-09 04:25 | 59.64134 | -3.87726 | 5131 ft | 153 kts | 148° |
| 2026-05-09 04:26 | 59.63279 | -3.86467 | 5131 ft | 154 kts | 148° |
| 2026-05-09 04:26 | 59.62420 | -3.85197 | 5131 ft | 154 kts | 148° |
| 2026-05-09 04:26 | 59.61562 | -3.83935 | 5132 ft | 152 kts | 148° |
| 2026-05-09 04:26 | 59.60709 | -3.82708 | 5132 ft | 152 kts | 148° |
| 2026-05-09 04:27 | 59.59853 | -3.81471 | 5132 ft | 154 kts | 148° |
| 2026-05-09 04:27 | 59.58996 | -3.80201 | 5133 ft | 155 kts | 148° |
| 2026-05-09 04:27 | 59.58144 | -3.78936 | 5133 ft | 153 kts | 148° |
| 2026-05-09 04:27 | 59.57293 | -3.77665 | 5133 ft | 153 kts | 148° |
| 2026-05-09 04:28 | 59.56446 | -3.76411 | 5133 ft | 152 kts | 148° |
| 2026-05-09 04:28 | 59.55612 | -3.75180 | 5133 ft | 152 kts | 148° |
| 2026-05-09 04:28 | 59.54756 | -3.73918 | 5119 ft | 152 kts | 148° |
| 2026-05-09 04:28 | 59.53917 | -3.72681 | 5131 ft | 152 kts | 148° |
| 2026-05-09 04:29 | 59.53065 | -3.71419 | 5137 ft | 153 kts | 148° |
| 2026-05-09 04:29 | 59.52212 | -3.70175 | 5139 ft | 152 kts | 148° |
| 2026-05-09 04:29 | 59.51360 | -3.68950 | 5140 ft | 152 kts | 148° |
| 2026-05-09 04:29 | 59.50506 | -3.67713 | 5140 ft | 153 kts | 148° |
| 2026-05-09 04:30 | 59.49648 | -3.66452 | 5140 ft | 155 kts | 148° |
| 2026-05-09 04:30 | 59.48786 | -3.65183 | 5138 ft | 155 kts | 148° |
| 2026-05-09 04:30 | 59.47923 | -3.63913 | 5139 ft | 155 kts | 148° |
| 2026-05-09 04:30 | 59.47062 | -3.62664 | 5134 ft | 153 kts | 148° |
| 2026-05-09 04:31 | 59.46201 | -3.61404 | 5136 ft | 154 kts | 148° |
| 2026-05-09 04:31 | 59.45334 | -3.60176 | 5135 ft | 154 kts | 149° |
| 2026-05-09 04:31 | 59.44461 | -3.58960 | 5134 ft | 155 kts | 149° |
| 2026-05-09 04:31 | 59.43585 | -3.57735 | 5133 ft | 155 kts | 149° |
| 2026-05-09 04:32 | 59.42719 | -3.56511 | 5136 ft | 152 kts | 148° |
| 2026-05-09 04:32 | 59.41868 | -3.55279 | 5136 ft | 152 kts | 147° |
| 2026-05-09 04:32 | 59.41028 | -3.54021 | 5137 ft | 152 kts | 146° |
| 2026-05-09 04:32 | 59.40464 | -3.53156 | 5137 ft | 153 kts | 146° |
| 2026-05-09 04:33 | 59.39641 | -3.51879 | 5138 ft | 152 kts | 146° |
| 2026-05-09 04:33 | 59.38806 | -3.50592 | 5136 ft | 154 kts | 146° |
| 2026-05-09 04:33 | 59.37967 | -3.49284 | 5137 ft | 155 kts | 145° |
| 2026-05-09 04:33 | 59.37135 | -3.47975 | 5136 ft | 153 kts | 145° |
| 2026-05-09 04:34 | 59.36296 | -3.46690 | 5137 ft | 154 kts | 147° |
| 2026-05-09 04:34 | 59.35438 | -3.45430 | 5136 ft | 153 kts | 148° |
| 2026-05-09 04:34 | 59.34565 | -3.44212 | 5137 ft | 154 kts | 149° |
| 2026-05-09 04:34 | 59.33681 | -3.43018 | 5137 ft | 155 kts | 151° |
| 2026-05-09 04:35 | 59.32788 | -3.41843 | 5142 ft | 155 kts | 148° |
| 2026-05-09 04:35 | 59.32011 | -3.40395 | 5145 ft | 153 kts | 132° |
| 2026-05-09 04:35 | 59.31455 | -3.38620 | 5145 ft | 154 kts | 115° |
| 2026-05-09 04:35 | 59.31155 | -3.36598 | 5146 ft | 155 kts | 98° |
| 2026-05-09 04:36 | 59.31121 | -3.34522 | 5140 ft | 153 kts | 82° |
| 2026-05-09 04:36 | 59.31350 | -3.32491 | 5142 ft | 152 kts | 66° |
| 2026-05-09 04:36 | 59.31821 | -3.30661 | 5148 ft | 150 kts | 49° |
| 2026-05-09 04:36 | 59.32508 | -3.29165 | 5147 ft | 146 kts | 33° |
| 2026-05-09 04:37 | 59.33355 | -3.28127 | 5142 ft | 142 kts | 15° |
| 2026-05-09 04:37 | 59.34284 | -3.27645 | 5139 ft | 136 kts | 359° |
| 2026-05-09 04:37 | 59.35210 | -3.27676 | 5137 ft | 131 kts | 344° |
| 2026-05-09 04:37 | 59.36082 | -3.28018 | 5133 ft | 126 kts | 340° |
| 2026-05-09 04:38 | 59.36943 | -3.28332 | 5131 ft | 126 kts | 346° |
| 2026-05-09 04:38 | 59.37821 | -3.28288 | 5121 ft | 129 kts | 1° |
| 2026-05-09 04:38 | 59.38675 | -3.27729 | 5124 ft | 131 kts | 19° |
| 2026-05-09 04:38 | 59.39417 | -3.26652 | 5128 ft | 135 kts | 37° |
| 2026-05-09 04:39 | 59.39989 | -3.25146 | 5131 ft | 141 kts | 53° |
| 2026-05-09 04:39 | 59.40345 | -3.23333 | 5134 ft | 144 kts | 70° |
| 2026-05-09 04:39 | 59.40471 | -3.21373 | 5137 ft | 146 kts | 86° |
| 2026-05-09 04:39 | 59.40340 | -3.19373 | 5137 ft | 149 kts | 101° |
| 2026-05-09 04:40 | 59.40059 | -3.17426 | 5137 ft | 151 kts | 106° |
| 2026-05-09 04:40 | 59.39779 | -3.15431 | 5140 ft | 152 kts | 101° |
| 2026-05-09 04:40 | 59.39650 | -3.13372 | 5142 ft | 152 kts | 88° |
| 2026-05-09 04:40 | 59.39778 | -3.11322 | 5142 ft | 151 kts | 71° |
| 2026-05-09 04:41 | 59.40176 | -3.09437 | 5138 ft | 149 kts | 54° |
| 2026-05-09 04:41 | 59.40793 | -3.07838 | 5141 ft | 145 kts | 40° |
| 2026-05-09 04:41 | 59.41541 | -3.06539 | 5136 ft | 143 kts | 31° |
| 2026-05-09 04:41 | 59.42337 | -3.05403 | 5131 ft | 141 kts | 28° |
| 2026-05-09 04:42 | 59.43121 | -3.04260 | 5128 ft | 140 kts | 31° |
| 2026-05-09 04:42 | 59.43846 | -3.02974 | 5120 ft | 141 kts | 39° |
| 2026-05-09 04:42 | 59.44467 | -3.01474 | 5122 ft | 142 kts | 49° |
| 2026-05-09 04:42 | 59.44955 | -2.99770 | 5125 ft | 144 kts | 58° |
| 2026-05-09 04:43 | 59.45316 | -2.97919 | 5127 ft | 146 kts | 66° |
| 2026-05-09 04:43 | 59.45596 | -2.95990 | 5129 ft | 148 kts | 70° |
| 2026-05-09 04:43 | 59.45842 | -2.94022 | 5130 ft | 148 kts | 71° |
| 2026-05-09 04:43 | 59.46103 | -2.92060 | 5132 ft | 148 kts | 69° |
| 2026-05-09 04:44 | 59.46419 | -2.90128 | 5130 ft | 149 kts | 65° |
| 2026-05-09 04:44 | 59.46810 | -2.88250 | 5131 ft | 148 kts | 60° |
| 2026-05-09 04:44 | 59.47277 | -2.86453 | 5134 ft | 147 kts | 54° |
| 2026-05-09 04:44 | 59.47807 | -2.84740 | 5126 ft | 146 kts | 51° |
| 2026-05-09 04:45 | 59.48378 | -2.83085 | 5123 ft | 146 kts | 49° |
| 2026-05-09 04:45 | 59.48959 | -2.81455 | 5121 ft | 145 kts | 49° |
| 2026-05-09 04:45 | 59.49530 | -2.79813 | 5120 ft | 145 kts | 50° |
| 2026-05-09 04:45 | 59.50073 | -2.78134 | 5116 ft | 146 kts | 53° |
| 2026-05-09 04:46 | 59.50573 | -2.76400 | 5118 ft | 146 kts | 56° |
| 2026-05-09 04:46 | 59.51031 | -2.74609 | 5119 ft | 146 kts | 58° |
| 2026-05-09 04:46 | 59.51459 | -2.72789 | 5121 ft | 147 kts | 60° |
| 2026-05-09 04:46 | 59.51866 | -2.70944 | 5122 ft | 147 kts | 61° |
| 2026-05-09 04:47 | 59.52264 | -2.69111 | 5125 ft | 148 kts | 61° |
| 2026-05-09 04:47 | 59.52683 | -2.67236 | 5127 ft | 148 kts | 60° |
| 2026-05-09 04:47 | 59.53108 | -2.65424 | 5128 ft | 147 kts | 59° |